createdAt,value
2022-08-17T00:00:43.261Z,24.44
2022-08-17T00:03:29.469Z,24.44
2022-08-17T00:06:38.144Z,24.40
2022-08-17T00:09:07.164Z,24.37
2022-08-17T00:11:40.050Z,24.57
2022-08-17T00:14:19.968Z,24.43
2022-08-17T00:16:56.916Z,24.54
2022-08-17T00:19:27.358Z,24.56
2022-08-17T00:22:31.732Z,24.34
2022-08-17T00:24:47.864Z,24.08
2022-08-17T00:27:16.475Z,23.76
2022-08-17T00:29:46.828Z,23.76
2022-08-17T00:33:12.213Z,23.97
2022-08-17T00:35:10.875Z,24.12
2022-08-17T00:37:39.724Z,24.08
2022-08-17T00:40:10.606Z,24.31
2022-08-17T00:42:40.022Z,24.41
2022-08-17T00:45:11.520Z,24.11
2022-08-17T00:47:41.338Z,24.12
2022-08-17T00:50:14.113Z,23.83
2022-08-17T00:52:55.967Z,23.55
2022-08-17T00:55:26.012Z,23.36
2022-08-17T00:58:00.290Z,23.21
2022-08-17T01:00:33.647Z,23.10
2022-08-17T01:03:07.932Z,23.26
2022-08-17T01:05:42.402Z,23.25
2022-08-17T01:08:15.259Z,23.10
2022-08-17T01:11:00.186Z,23.10
2022-08-17T01:13:40.155Z,23.23
2022-08-17T01:16:28.855Z,23.08
2022-08-17T01:19:01.879Z,22.94
2022-08-17T01:21:57.275Z,22.88
2022-08-17T01:24:26.476Z,22.86
2022-08-17T01:26:56.605Z,22.82
2022-08-17T01:29:27.013Z,22.72
2022-08-17T01:31:58.870Z,22.56
2022-08-17T01:34:42.086Z,22.48
2022-08-17T01:37:13.678Z,22.36
2022-08-17T01:39:54.206Z,22.28
2022-08-17T01:42:28.858Z,22.13
2022-08-17T01:45:00.341Z,22.06
2022-08-17T01:47:29.868Z,22.18
2022-08-17T01:49:59.742Z,22.43
2022-08-17T01:52:28.355Z,22.30
2022-08-17T01:54:57.871Z,22.29
2022-08-17T01:57:26.690Z,22.34
2022-08-17T01:59:55.368Z,22.35
2022-08-17T02:02:30.801Z,22.26
2022-08-17T02:05:01.027Z,22.27
2022-08-17T02:07:29.971Z,22.07
2022-08-17T02:09:59.579Z,21.99
2022-08-17T02:12:37.913Z,22.04
2022-08-17T02:15:11.102Z,22.06
2022-08-17T02:17:41.949Z,21.74
2022-08-17T02:20:12.499Z,21.81
2022-08-17T02:22:44.090Z,21.58
2022-08-17T02:25:17.529Z,21.43
2022-08-17T02:27:46.259Z,21.33
2022-08-17T02:31:00.130Z,21.33
2022-08-17T02:33:06.252Z,21.42
2022-08-17T02:35:38.815Z,21.38
2022-08-17T02:38:08.834Z,21.45
2022-08-17T02:40:38.652Z,21.52
2022-08-17T02:43:07.715Z,21.50
2022-08-17T02:45:36.170Z,21.38
2022-08-17T02:48:05.470Z,21.34
2022-08-17T02:50:34.368Z,21.24
2022-08-17T02:53:04.780Z,20.98
2022-08-17T02:55:37.657Z,20.88
2022-08-17T02:58:06.281Z,20.86
2022-08-17T03:00:37.929Z,20.84
2022-08-17T03:03:08.365Z,20.61
2022-08-17T03:05:39.093Z,20.50
2022-08-17T03:08:13.105Z,20.14
2022-08-17T03:10:42.751Z,19.90
2022-08-17T03:13:11.890Z,19.80
2022-08-17T03:15:43.970Z,19.58
2022-08-17T03:18:20.109Z,19.54
2022-08-17T03:20:59.343Z,19.42
2022-08-17T03:23:30.319Z,19.20
2022-08-17T03:25:59.373Z,19.14
2022-08-17T03:28:29.578Z,19.06
2022-08-17T03:30:58.158Z,18.96
2022-08-17T03:33:26.935Z,18.84
2022-08-17T03:35:55.545Z,18.71
2022-08-17T03:38:24.217Z,18.60
2022-08-17T03:40:57.161Z,18.47
2022-08-17T03:43:31.929Z,18.41
2022-08-17T03:46:34.003Z,18.41
2022-08-17T03:49:24.187Z,18.37
2022-08-17T03:52:11.549Z,18.33
2022-08-17T03:54:59.357Z,18.26
2022-08-17T03:57:28.421Z,18.18
2022-08-17T03:59:57.949Z,18.11
2022-08-17T04:02:31.067Z,18.06
2022-08-17T04:05:00.403Z,18.03
2022-08-17T04:07:31.668Z,18.00
2022-08-17T04:10:02.126Z,17.88
2022-08-17T04:12:55.951Z,17.83
2022-08-17T04:15:29.641Z,17.76
2022-08-17T04:18:01.864Z,17.74
2022-08-17T04:20:31.470Z,17.68
2022-08-17T04:23:10.961Z,17.60
2022-08-17T04:25:43.913Z,17.53
2022-08-17T04:28:15.832Z,17.47
2022-08-17T04:30:46.737Z,17.49
2022-08-17T04:33:19.438Z,17.38
2022-08-17T04:35:52.035Z,17.28
2022-08-17T04:38:26.175Z,17.13
2022-08-17T04:41:13.935Z,17.20
2022-08-17T04:43:44.399Z,17.13
2022-08-17T04:46:18.394Z,17.07
2022-08-17T04:48:52.098Z,16.99
2022-08-17T04:51:26.568Z,16.98
2022-08-17T04:53:59.201Z,16.90
2022-08-17T04:56:30.120Z,16.77
2022-08-17T04:59:04.199Z,16.61
2022-08-17T05:01:36.801Z,16.42
2022-08-17T05:04:33.258Z,16.28
2022-08-17T05:06:58.135Z,16.22
2022-08-17T05:09:26.700Z,16.19
2022-08-17T05:11:56.309Z,16.13
2022-08-17T05:14:32.895Z,16.11
2022-08-17T05:17:07.447Z,16.11
2022-08-17T05:19:40.491Z,15.95
2022-08-17T05:22:09.862Z,15.90
2022-08-17T05:24:43.475Z,15.88
2022-08-17T05:27:22.858Z,15.88
2022-08-17T05:29:52.470Z,15.81
2022-08-17T05:32:38.905Z,15.83
2022-08-17T05:35:10.070Z,15.74
2022-08-17T05:37:39.247Z,15.77
2022-08-17T05:40:09.114Z,15.64
2022-08-17T05:43:00.054Z,15.56
2022-08-17T05:45:54.468Z,15.56
2022-08-17T05:48:22.775Z,15.49
2022-08-17T05:51:44.004Z,15.49
2022-08-17T05:54:40.904Z,15.42
2022-08-17T05:57:39.890Z,15.33
2022-08-17T06:00:30.382Z,15.19
2022-08-17T06:03:27.454Z,15.19
2022-08-17T06:06:25.129Z,15.14
2022-08-17T06:09:11.422Z,15.06
2022-08-17T06:11:54.036Z,15.08
2022-08-17T06:14:55.337Z,14.98
2022-08-17T06:17:28.681Z,15.06
2022-08-17T06:20:05.268Z,14.97
2022-08-17T06:22:43.798Z,14.93
2022-08-17T06:25:27.416Z,14.90
2022-08-17T06:28:03.540Z,15.09
2022-08-17T06:30:59.218Z,15.15
2022-08-17T06:33:35.364Z,15.18
2022-08-17T06:36:30.125Z,15.20
2022-08-17T06:39:29.994Z,15.15
2022-08-17T06:41:58.742Z,15.12
2022-08-17T06:45:04.867Z,15.13
2022-08-17T06:47:44.125Z,15.15
2022-08-17T06:50:43.288Z,15.05
2022-08-17T06:53:30.790Z,14.91
2022-08-17T06:56:13.155Z,14.78
2022-08-17T06:58:44.598Z,14.74
2022-08-17T07:01:22.247Z,14.75
2022-08-17T07:03:59.205Z,14.70
2022-08-17T07:07:02.918Z,14.68
2022-08-17T07:09:37.553Z,14.66
2022-08-17T07:12:12.720Z,14.60
2022-08-17T07:14:54.980Z,14.53
2022-08-17T07:17:46.714Z,14.50
2022-08-17T07:20:24.591Z,14.43
2022-08-17T07:23:00.630Z,14.39
2022-08-17T07:25:31.785Z,14.27
2022-08-17T07:28:06.994Z,14.20
2022-08-17T07:30:47.478Z,14.12
2022-08-17T07:33:21.514Z,13.97
2022-08-17T07:35:51.053Z,13.84
2022-08-17T07:38:30.696Z,13.83
2022-08-17T07:41:03.423Z,13.70
2022-08-17T07:43:35.707Z,13.62
2022-08-17T07:46:36.978Z,13.58
2022-08-17T07:49:08.766Z,13.60
2022-08-17T07:51:42.432Z,13.66
2022-08-17T07:54:17.144Z,13.54
2022-08-17T07:56:51.239Z,13.53
2022-08-17T07:59:23.366Z,13.57
2022-08-17T08:02:16.297Z,13.52
2022-08-17T08:05:11.196Z,13.36
2022-08-17T08:07:57.209Z,13.23
2022-08-17T08:10:45.024Z,13.24
2022-08-17T08:13:25.105Z,13.18
2022-08-17T08:15:57.094Z,13.22
2022-08-17T08:18:53.740Z,13.21
2022-08-17T08:21:34.615Z,13.22
2022-08-17T08:24:31.290Z,13.04
2022-08-17T08:27:11.892Z,13.05
2022-08-17T08:30:07.966Z,12.97
2022-08-17T08:32:39.508Z,13.05
2022-08-17T08:35:32.123Z,13.16
2022-08-17T08:38:09.527Z,13.16
2022-08-17T08:41:14.357Z,13.08
2022-08-17T08:44:08.215Z,13.01
2022-08-17T08:47:01.267Z,12.96
2022-08-17T08:50:05.640Z,12.94
2022-08-17T08:53:01.535Z,12.85
2022-08-17T08:55:39.619Z,12.79
2022-08-17T08:58:31.884Z,12.73
2022-08-17T09:01:19.185Z,12.73
2022-08-17T09:04:37.283Z,12.71
2022-08-17T09:08:05.820Z,12.70
2022-08-17T09:11:06.503Z,12.79
2022-08-17T09:13:54.268Z,12.86
2022-08-17T09:16:52.519Z,12.78
2022-08-17T09:19:42.326Z,12.78
2022-08-17T09:22:35.899Z,12.75
2022-08-17T09:25:10.300Z,12.82
2022-08-17T09:28:05.041Z,12.69
2022-08-17T09:30:56.916Z,12.71
2022-08-17T09:33:28.346Z,12.64
2022-08-17T09:36:40.523Z,12.48
2022-08-17T09:39:15.089Z,12.43
2022-08-17T09:42:01.852Z,12.50
2022-08-17T09:44:42.295Z,12.52
2022-08-17T09:47:47.669Z,12.44
2022-08-17T09:51:03.409Z,12.45
2022-08-17T09:53:17.562Z,12.44
2022-08-17T09:56:04.772Z,12.47
2022-08-17T09:59:10.202Z,12.59
2022-08-17T10:01:45.823Z,12.46
2022-08-17T10:04:35.550Z,12.43
2022-08-17T10:07:19.147Z,12.33
2022-08-17T10:10:14.481Z,12.29
2022-08-17T10:12:55.157Z,12.17
2022-08-17T10:15:26.850Z,12.08
2022-08-17T10:18:33.365Z,12.08
2022-08-17T10:21:33.273Z,11.99
2022-08-17T10:25:21.559Z,11.89
2022-08-17T10:27:53.211Z,11.85
2022-08-17T10:30:25.989Z,11.83
2022-08-17T10:32:56.763Z,11.81
2022-08-17T10:35:39.976Z,11.79
2022-08-17T10:38:42.777Z,11.74
2022-08-17T10:41:42.594Z,11.80
2022-08-17T10:44:42.076Z,11.68
2022-08-17T10:47:17.183Z,11.72
2022-08-17T10:49:54.944Z,11.66
2022-08-17T10:52:27.587Z,11.57
2022-08-17T10:54:58.875Z,11.53
2022-08-17T10:57:36.153Z,11.53
2022-08-17T11:00:27.406Z,11.43
2022-08-17T11:02:58.688Z,11.35
2022-08-17T11:05:57.083Z,11.45
2022-08-17T11:09:06.845Z,11.40
2022-08-17T11:11:57.912Z,11.46
2022-08-17T11:14:41.169Z,11.52
2022-08-17T11:17:24.247Z,11.56
2022-08-17T11:20:10.612Z,11.51
2022-08-17T11:23:14.215Z,11.58
2022-08-17T11:25:48.844Z,11.52
2022-08-17T11:28:23.352Z,11.37
2022-08-17T11:31:11.357Z,11.46
2022-08-17T11:33:43.197Z,11.34
2022-08-17T11:36:33.087Z,11.31
2022-08-17T11:39:27.865Z,11.33
2022-08-17T11:42:21.032Z,11.30
2022-08-17T11:44:57.310Z,11.25
2022-08-17T11:48:16.157Z,11.23
2022-08-17T11:51:17.895Z,11.19
2022-08-17T11:53:46.817Z,11.19
2022-08-17T11:56:40.582Z,11.15
2022-08-17T11:59:38.251Z,11.18
2022-08-17T12:02:32.617Z,11.24
2022-08-17T12:05:15.734Z,11.20
2022-08-17T12:08:07.845Z,11.18
2022-08-17T12:10:41.738Z,11.17
2022-08-17T12:13:17.276Z,11.13
2022-08-17T12:15:51.859Z,11.06
2022-08-17T12:18:33.415Z,11.01
2022-08-17T12:22:00.617Z,10.99
2022-08-17T12:24:41.054Z,10.97
2022-08-17T12:27:13.263Z,11.01
2022-08-17T12:29:46.488Z,11.03
2022-08-17T12:32:18.809Z,11.01
2022-08-17T12:34:50.369Z,11.13
2022-08-17T12:37:26.306Z,11.13
2022-08-17T12:40:02.370Z,11.09
2022-08-17T12:42:38.840Z,11.17
2022-08-17T12:45:25.816Z,11.22
2022-08-17T12:48:09.611Z,11.25
2022-08-17T12:50:43.794Z,11.30
2022-08-17T12:53:18.863Z,11.34
2022-08-17T12:55:48.257Z,11.38
2022-08-17T12:58:23.477Z,11.47
2022-08-17T13:01:03.287Z,11.55
2022-08-17T13:03:43.095Z,11.64
2022-08-17T13:06:15.671Z,11.66
2022-08-17T13:08:51.435Z,11.65
2022-08-17T13:11:26.420Z,11.68
2022-08-17T13:14:09.682Z,11.68
2022-08-17T13:16:38.594Z,11.76
2022-08-17T13:19:15.998Z,11.79
2022-08-17T13:21:53.471Z,11.85
2022-08-17T13:24:38.391Z,11.94
2022-08-17T13:27:11.357Z,12.05
2022-08-17T13:30:02.505Z,12.14
2022-08-17T13:32:43.866Z,12.28
2022-08-17T13:35:39.251Z,12.41
2022-08-17T13:38:16.672Z,12.47
2022-08-17T13:40:51.102Z,12.56
2022-08-17T13:43:51.115Z,12.63
2022-08-17T13:46:27.900Z,12.65
2022-08-17T13:49:10.999Z,12.77
2022-08-17T13:51:51.381Z,12.94
2022-08-17T13:54:31.033Z,13.13
2022-08-17T13:57:08.368Z,13.31
2022-08-17T13:59:52.886Z,13.43
2022-08-17T14:02:28.463Z,13.59
2022-08-17T14:04:58.699Z,13.62
2022-08-17T14:07:31.844Z,13.76
2022-08-17T14:10:02.245Z,13.90
2022-08-17T14:12:34.136Z,14.03
2022-08-17T14:15:03.761Z,14.14
2022-08-17T14:17:38.078Z,14.31
2022-08-17T14:20:10.896Z,14.42
2022-08-17T14:22:44.554Z,14.52
2022-08-17T14:25:16.448Z,14.65
2022-08-17T14:27:52.777Z,14.84
2022-08-17T14:30:30.012Z,14.89
2022-08-17T14:32:59.162Z,14.94
2022-08-17T14:35:29.537Z,15.06
2022-08-17T14:37:58.839Z,15.04
2022-08-17T14:40:28.325Z,15.17
2022-08-17T14:42:59.293Z,15.29
2022-08-17T14:45:32.929Z,15.43
2022-08-17T14:48:05.407Z,15.54
2022-08-17T14:50:36.145Z,15.62
2022-08-17T14:53:09.674Z,15.68
2022-08-17T14:55:41.084Z,15.83
2022-08-17T14:58:10.575Z,15.92
2022-08-17T15:00:40.668Z,16.11
2022-08-17T15:03:09.336Z,16.28
2022-08-17T15:05:40.448Z,16.39
2022-08-17T15:08:09.329Z,16.55
2022-08-17T15:10:40.984Z,16.65
2022-08-17T15:13:22.174Z,16.74
2022-08-17T15:15:51.748Z,16.82
2022-08-17T15:18:20.387Z,16.88
2022-08-17T15:20:50.767Z,17.00
2022-08-17T15:23:22.771Z,17.06
2022-08-17T15:25:54.945Z,17.19
2022-08-17T15:28:26.951Z,17.28
2022-08-17T15:30:55.998Z,17.43
2022-08-17T15:33:32.457Z,17.61
2022-08-17T15:36:08.216Z,17.85
2022-08-17T15:38:40.762Z,18.07
2022-08-17T15:41:16.692Z,18.13
2022-08-17T15:43:47.192Z,18.39
2022-08-17T15:46:26.943Z,18.58
2022-08-17T15:49:00.309Z,18.68
2022-08-17T15:51:35.319Z,18.83
2022-08-17T15:54:19.267Z,18.98
2022-08-17T15:56:51.384Z,19.09
2022-08-17T15:59:20.763Z,19.32
2022-08-17T16:03:15.105Z,19.38
2022-08-17T16:04:40.793Z,19.45
2022-08-17T16:07:12.672Z,19.65
2022-08-17T16:09:41.098Z,19.65
2022-08-17T16:12:12.036Z,19.56
2022-08-17T16:14:40.853Z,20.03
2022-08-17T16:17:38.491Z,20.00
2022-08-17T16:20:00.814Z,20.36
2022-08-17T16:22:43.229Z,20.36
2022-08-17T16:25:19.288Z,20.50
2022-08-17T16:27:54.322Z,20.60
2022-08-17T16:30:25.976Z,20.43
2022-08-17T16:32:56.480Z,20.88
2022-08-17T16:35:28.405Z,21.03
2022-08-17T16:37:58.533Z,20.98
2022-08-17T16:40:29.591Z,21.07
2022-08-17T16:42:59.902Z,21.20
2022-08-17T16:45:32.178Z,21.31
2022-08-17T16:48:02.882Z,21.51
2022-08-17T16:50:33.226Z,21.73
2022-08-17T16:53:18.470Z,21.85
2022-08-17T16:55:53.376Z,21.91
2022-08-17T16:58:22.061Z,22.16
2022-08-17T17:00:50.072Z,22.46
2022-08-17T17:03:26.330Z,22.49
2022-08-17T17:06:06.474Z,22.51
2022-08-17T17:08:45.595Z,22.85
2022-08-17T17:11:47.634Z,22.72
2022-08-17T17:14:29.685Z,22.85
2022-08-17T17:17:05.728Z,23.22
2022-08-17T17:19:37.019Z,23.14
2022-08-17T17:22:18.263Z,23.38
2022-08-17T17:25:10.958Z,23.25
2022-08-17T17:28:01.319Z,23.29
2022-08-17T17:30:42.227Z,23.84
2022-08-17T17:33:21.953Z,23.63
2022-08-17T17:35:50.580Z,23.53
2022-08-17T17:38:29.168Z,23.47
2022-08-17T17:41:25.850Z,23.24
2022-08-17T17:44:10.099Z,23.75
2022-08-17T17:46:43.933Z,23.90
2022-08-17T17:49:15.609Z,24.76
2022-08-17T17:52:10.947Z,24.14
2022-08-17T17:55:15.765Z,24.14
2022-08-17T17:58:21.624Z,24.10
2022-08-17T18:01:51.062Z,24.05
2022-08-17T18:04:46.142Z,24.22
2022-08-17T18:07:36.578Z,24.23
2022-08-17T18:10:57.140Z,24.15
2022-08-17T18:13:54.655Z,24.64
2022-08-17T18:16:24.347Z,24.82
2022-08-17T18:18:54.104Z,25.35
2022-08-17T18:21:28.962Z,24.91
2022-08-17T18:24:04.995Z,25.65
2022-08-17T18:26:44.961Z,24.80
2022-08-17T18:29:24.607Z,25.55
2022-08-17T18:32:17.338Z,24.91
2022-08-17T18:34:48.590Z,25.25
2022-08-17T18:37:44.007Z,25.16
2022-08-17T18:40:19.146Z,25.26
2022-08-17T18:43:04.169Z,24.98
2022-08-17T18:45:42.170Z,25.09
2022-08-17T18:48:24.961Z,24.63
2022-08-17T18:50:55.628Z,24.82
2022-08-17T18:53:42.908Z,24.53
2022-08-17T18:56:32.543Z,24.77
2022-08-17T18:59:14.237Z,24.68
2022-08-17T19:01:59.965Z,25.14
2022-08-17T19:04:41.973Z,24.92
2022-08-17T19:07:25.305Z,24.95
2022-08-17T19:09:56.929Z,25.09
2022-08-17T19:12:32.502Z,25.39
2022-08-17T19:15:02.051Z,25.02
2022-08-17T19:17:39.324Z,25.13
2022-08-17T19:20:16.201Z,24.99
2022-08-17T19:22:53.866Z,24.89
2022-08-17T19:25:32.442Z,25.02
2022-08-17T19:28:22.377Z,24.97
2022-08-17T19:31:00.738Z,25.12
2022-08-17T19:33:30.277Z,24.83
2022-08-17T19:36:35.618Z,24.88
2022-08-17T19:39:37.780Z,25.13
2022-08-17T19:42:33.753Z,24.88
2022-08-17T19:45:13.184Z,24.98
2022-08-17T19:48:15.481Z,25.15
2022-08-17T19:50:56.031Z,24.78
2022-08-17T19:54:04.392Z,24.75
2022-08-17T19:56:45.134Z,24.66
2022-08-17T19:59:20.368Z,25.06
2022-08-17T20:02:10.525Z,25.26
2022-08-17T20:04:46.848Z,25.52
2022-08-17T20:07:27.771Z,25.40
2022-08-17T20:10:10.017Z,25.29
2022-08-17T20:12:41.866Z,25.31
2022-08-17T20:15:16.860Z,25.28
2022-08-17T20:17:48.156Z,24.95
2022-08-17T20:20:46.762Z,24.95
2022-08-17T20:23:30.627Z,24.88
2022-08-17T20:26:07.160Z,25.23
2022-08-17T20:28:40.354Z,24.85
2022-08-17T20:31:43.292Z,25.21
2022-08-17T20:34:41.146Z,24.95
2022-08-17T20:37:29.398Z,25.05
2022-08-17T20:39:58.197Z,25.36
2022-08-17T20:42:28.356Z,25.37
2022-08-17T20:45:03.283Z,24.97
2022-08-17T20:48:15.204Z,24.93
2022-08-17T20:50:46.364Z,25.17
2022-08-17T20:53:50.087Z,25.37
2022-08-17T20:56:46.597Z,25.45
2022-08-17T20:59:26.743Z,25.12
2022-08-17T21:02:12.386Z,25.16
2022-08-17T21:05:02.015Z,25.06
2022-08-17T21:07:53.935Z,25.30
2022-08-17T21:10:25.855Z,25.04
2022-08-17T21:13:15.750Z,25.38
2022-08-17T21:15:54.047Z,25.19
2022-08-17T21:18:27.299Z,25.22
2022-08-17T21:21:17.626Z,25.02
2022-08-17T21:23:54.312Z,25.02
2022-08-17T21:26:51.262Z,25.31
2022-08-17T21:29:32.419Z,24.97
2022-08-17T21:32:06.322Z,24.99
2022-08-17T21:34:45.665Z,24.76
2022-08-17T21:37:31.997Z,24.68
2022-08-17T21:40:19.402Z,25.15
2022-08-17T21:42:56.414Z,25.08
2022-08-17T21:45:32.541Z,25.31
2022-08-17T21:48:14.028Z,25.46
2022-08-17T21:51:09.666Z,25.73
2022-08-17T21:53:43.638Z,25.04
2022-08-17T21:56:21.119Z,25.32
2022-08-17T21:58:58.081Z,25.17
2022-08-17T22:01:31.059Z,25.12
2022-08-17T22:04:19.286Z,24.96
2022-08-17T22:06:56.470Z,25.32
2022-08-17T22:09:48.096Z,25.30
2022-08-17T22:12:25.209Z,25.28
2022-08-17T22:15:05.523Z,25.22
2022-08-17T22:17:39.549Z,25.10
2022-08-17T22:20:16.350Z,25.55
2022-08-17T22:23:06.362Z,25.32
2022-08-17T22:25:38.194Z,25.13
2022-08-17T22:28:12.316Z,25.20
2022-08-17T22:31:01.158Z,25.09
2022-08-17T22:33:32.950Z,25.32
2022-08-17T22:36:31.484Z,25.52
2022-08-17T22:39:09.522Z,25.39
2022-08-17T22:41:53.262Z,25.52
2022-08-17T22:44:49.398Z,25.78
2022-08-17T22:47:18.328Z,25.56
2022-08-17T22:49:53.596Z,25.48
2022-08-17T22:52:57.344Z,25.15
2022-08-17T22:55:45.413Z,25.39
2022-08-17T22:58:34.947Z,25.23
2022-08-17T23:01:43.154Z,25.35
2022-08-17T23:04:33.590Z,25.38
2022-08-17T23:07:02.354Z,25.51
2022-08-17T23:09:31.263Z,25.61
2022-08-17T23:12:00.863Z,25.54
2022-08-17T23:14:33.045Z,25.48
2022-08-17T23:17:02.809Z,25.79
2022-08-17T23:19:34.742Z,25.71
2022-08-17T23:22:05.758Z,25.77
2022-08-17T23:24:41.658Z,25.78
2022-08-17T23:27:10.290Z,25.63
2022-08-17T23:29:43.457Z,25.64
2022-08-17T23:32:16.081Z,25.54
2022-08-17T23:34:48.389Z,25.63
2022-08-17T23:37:18.093Z,25.71
2022-08-17T23:39:47.116Z,25.59
2022-08-17T23:42:23.099Z,25.69
2022-08-17T23:44:52.161Z,25.66
2022-08-17T23:47:20.983Z,25.66
2022-08-17T23:49:49.846Z,25.44
2022-08-17T23:52:24.031Z,25.40
2022-08-17T23:54:52.807Z,25.55
2022-08-17T23:57:33.417Z,25.60
